Hlavní strana
METAR-TAF:

METAR-TAF

Letiště :

Aruba, Aruba

zeměpisná šířka: 12-30N, zeměpisná délka: 070-01W, výška: 18 m

Aktuální stav počasí

Zpráva byla vytvořena před 36 minutami, v 01:00 UTC
Východní vítr 14 kt
Teplota 27°C
Vlhkost vzduchu 84%
Tlak 1013 hPa
Viditelnost 10 km a více
Polojasno ve výšce 1600 ft

METAR: TNCA 260100Z 09014KT 9999 SCT016 27/24 Q1013 NOSIG

Čas: 21:36 (01:36 UTC)

Předpověď počasí

Zpráva byla vytvořena před 2 hodinami a 19 minutami, v 23:17 UTC
Předpověď platná od 26 v 00 UTC do 26 v 24 UTC
Východní vítr 16 kt
Viditelnost 10 km a více
Polojasno ve výšce 1800 ft
Dočasný
od 26 v 07 UTC do 26 v 17 UTC
Oblačno až skoro zataženo ve výšce 1500 ft

TAF: TNCA 252317Z 2600/2624 08016KT 9999 SCT018 TEMPO 2607/2617 BKN015

Stav a předpovědi počasí z více než 4 000 letišť (zprávy METAR a TAF).

Červené a žluté tečky na mapě představují dostupné meteorologické stanice.

Když kurzor umístíte na tečku, zobrazí se název stanice.

Pak kliknutím zobrazíte stav a předpověď počasí.

Chcete-li změnit mapu, kliknutím na zelené tlačítko se znaménkem +mapu přiblížíte, kliknutím na zelené tlačítko se znaménkem – mapu oddálíte a kliknutím na zelené šipky přejdete na sousední mapy.


METAR-TAF: